10Km

10 Km Trail des Epeutnaerts du 08/04/18 (Réelle 10,8)
Rang Dossard Nom Prénom Temps Cat Rang Cat Ecart Ecart Cat Club Vitesse Km/h Temps au Km
1 177 GRIVART Valentin 00:44:21 SEM 1 00:00:00 00:00:00 AC capellois 14,611 04:06
2 183 B'AHEU Pascal 00:47:32 SEM 2 00:03:11 00:03:11 Ac Capellois 13,633 04:24
3 181 GOURNAY Laurent 00:47:55 V2M 1 00:03:34 00:00:00 Team Trail Audomarois 13,523 04:26
4 108 JULIEN Pierre 00:48:37 CAM 1 00:04:16 00:00:00 Team Trail Audomarois 13,329 04:30
5 171 PRUDHOMME georges 00:48:49 V2M 2 00:04:28 00:00:54 courir dans le lumbrois 13,274 04:31
6 75 CUCHEVAL Gontran 00:49:34 SEM 3 00:05:13 00:05:13 - 13,073 04:35
7 130 POULAIN Grégory 00:49:43 SEM 4 00:05:22 00:05:22 - 13,034 04:36
8 165 POPIEUL Simon 00:50:34 SEM 5 00:06:13 00:06:13 ASUD 12,815 04:41
9 86 WAY Stéphane 00:52:13 V1M 1 00:07:52 00:00:00 - 12,410 04:50
10 95 MINET Martin 00:52:29 SEM 6 00:08:08 00:08:08 - 12,347 04:52
11 44 ANTUNEZ Julien 00:52:38 SEM 7 00:08:17 00:08:17 - 12,312 04:52
12 169 GERNEZ Thomas 00:53:45 SEM 8 00:09:24 00:09:24 - 12,056 04:59
13 93 LEBRIEZ Gregory 00:54:59 V1M 2 00:10:38 00:02:46 - 11,785 05:05
14 76 HERBAUX Noémie 00:55:07 SEF 1 00:10:46 00:00:00 Fab'ulous Team 11,757 05:06
15 67 DELATTRE Antoine 00:55:23 V1M 3 00:11:02 00:03:10 COT Calais/Saint-Omer 11,700 05:08
16 182 B'AHEU Patrick 00:55:31 V3M 1 00:11:10 00:00:00 Drapeau Le Portel 11,672 05:08
17 128 DISSAUX Christian 00:56:15 SEM 9 00:11:54 00:11:54 Team Trail Audomarois 11,520 05:12
18 53 PENIN Remi 00:56:22 SEM 10 00:12:01 00:12:01 - 11,496 05:13
19 107 DAUSQUES Wilfrid 00:56:24 V1M 4 00:12:03 00:04:11 BOURTHES RUNNING 11,489 05:13
20 87 DELATTRE Grégory 00:56:38 SEM 11 00:12:17 00:12:17 - 11,442 05:15
21 18 LAMARE Cédric 00:56:44 SEM 12 00:12:23 00:12:23 Alkatrail 11,422 05:15
22 106 STEVENART Michel 00:57:00 V2M 3 00:12:39 00:09:05 courir dans le lumbrois 11,368 05:17
23 82 BAILLY jerome 00:57:01 V1M 5 00:12:40 00:04:48 courir dans le lumbrois 11,365 05:17
24 143 PETTE Corentin 00:57:09 SEM 13 00:12:48 00:12:48 - 11,339 05:17
25 127 LEGRAND Matthieu 00:57:24 V1M 6 00:13:03 00:05:11 - 11,289 05:19
26 157 DELOBELLE Frédéric 00:57:27 SEM 14 00:13:06 00:13:06 - 11,279 05:19
27 185 BOUQUILLION Benjamin 00:57:30 SEM 15 00:13:09 00:13:09 - 11,270 05:19
28 47 BODART Thierry 00:57:32 SEM 16 00:13:11 00:13:11 - 11,263 05:20
29 43 MOLINARD Mathilde 00:57:47 SEF 2 00:13:26 00:02:40 T2 cap'athlon 11,214 05:21
30 155 MANIER Jérôme 00:57:50 V1M 7 00:13:29 00:05:37 Élan frugeois 11,205 05:21
31 81 BAILLY aurélie 00:57:56 V1F 1 00:13:35 00:00:00 courir dans le lumbrois 11,185 05:22
32 137 DECRIEM Eric 00:58:17 V2M 4 00:13:56 00:10:22 Courir à Gravelines 11,118 05:24
33 117 MARQUIS Frederic 00:58:32 V1M 8 00:14:11 00:06:19 non licencie 11,071 05:25
34 172 VASSEUR FRANCOIS 00:58:41 V2M 5 00:14:20 00:10:46 RCEperlecques 11,042 05:26
35 139 PELEREIN Ludovic 00:58:43 V1M 9 00:14:22 00:06:30 - 11,036 05:26
36 84 DOLLE Michael 00:59:17 V1M 10 00:14:56 00:07:04 - 10,931 05:29
37 73 LEGUAY Marianick 00:59:41 V1F 2 00:15:20 00:01:45 - 10,857 05:32
38 68 BOMY Noémie 00:59:59 SEF 3 00:15:38 00:04:52 Blanc nez triathlon 10,803 05:33
39 146 NOIROT David 00:59:59 SEM 17 00:15:38 00:15:38 Team Trail Audomarois 10,803 05:33
40 85 EVRARD Clement 01:00:22 SEM 18 00:16:01 00:16:01 - 10,734 05:35
41 49 LEFEBVRE Christophe 01:00:32 SEM 19 00:16:11 00:16:11 - 10,705 05:36
42 164 LEFEBVRE Guillaume 01:00:43 SEM 20 00:16:22 00:16:22 - 10,673 05:37
43 13 SEIGRE Didier 01:00:44 V3M 2 00:16:23 00:05:13 - 10,670 05:37
44 148 LEVEUGLE Caroline 01:00:46 SEF 4 00:16:25 00:05:39 - 10,664 05:38
45 58 BLANCKAERT Tony 01:01:17 V2M 6 00:16:56 00:13:22 - 10,574 05:40
46 79 LEMAIRE Cyril 01:01:18 SEM 21 00:16:57 00:16:57 - 10,571 05:41
47 184 DASSONNEVILLE Brigitte 01:01:47 V3F 1 00:17:26 00:00:00 Courir Monts des Cats 10,488 05:43
48 45 LARUE Bastien 01:01:59 SEM 22 00:17:38 00:17:38 - 10,454 05:44
49 147 PECQUEUX Laurent 01:02:14 V1M 11 00:17:53 00:10:01 WASC 10,412 05:46
50 15 BEWERSDORF jessica 01:02:43 V1F 3 00:18:22 00:04:47 Team Gravelines Trail 10,332 05:48
51 56 DELRUE Maxime 01:02:50 SEM 23 00:18:29 00:18:29 - 10,313 05:49
52 78 LEQUIEN Benjamin 01:03:29 SEM 24 00:19:08 00:19:08 - 10,207 05:53
53 37 DEWEULF Vanessa 01:03:30 SEF 5 00:19:09 00:08:23 - 10,205 05:53
54 192 LARTISIEN Pascaline 01:03:41 V1F 4 00:19:20 00:05:45 - 10,175 05:54
55 102 MASSET Tony 01:03:58 V1M 12 00:19:37 00:11:45 Courir dans le lumbrois 10,130 05:55
56 160 DESQUIREZ Michael 01:03:58 SEM 25 00:19:37 00:19:37 - 10,130 05:55
57 129 GAGNE Olivier 01:04:25 V1M 13 00:20:04 00:12:12 - 10,060 05:58
58 136 GUILLEMIN Aurélien 01:04:33 SEM 26 00:20:12 00:20:12 - 10,039 05:59
59 179 DOLLE Bruno 01:04:48 V2M 7 00:20:27 00:16:53 Epeutnaert Moringhem 10,000 06:00
60 52 DUCROCQ lorine 01:05:05 SEF 6 00:20:44 00:09:58 - 9,956 06:02
61 196 DUMINIL Christine 01:05:32 V2F 1 00:21:11 00:00:00 ESA 9,888 06:04
62 144 ANDRE David 01:05:36 SEM 27 00:21:15 00:21:15 - 9,878 06:04
63 154 WILS FREDERIC 01:05:36 V1M 14 00:21:15 00:13:23 blaringhem trail 9,878 06:04
64 80 LACHEVRE Christine 01:05:37 V2F 2 00:21:16 00:00:05 Courir à Gravelines 9,876 06:05
65 199 VERCOUTRE VINCENT 01:05:50 SEM 28 00:21:29 00:21:29 - 9,843 06:06
66 1188 BLANCHARD Mathieu 01:06:12 SEM 29 00:21:51 00:21:51 - 9,789 06:08
67 124 MAHIEU Tony 01:06:41 V1M 15 00:22:20 00:14:28 - 9,718 06:10
68 112 PRUDHOMME François 01:06:56 SEM 30 00:22:35 00:22:35 - 9,681 06:12
69 188 HIOT REGIS 01:07:01 V3M 3 00:22:40 00:11:30 - 9,669 06:12
70 186 LEROY Manon 01:07:06 CAF 1 00:22:45 00:00:00 O.S.A. ATHLETISME 9,657 06:13
71 22 FOULON Nathalie 01:07:22 V1F 5 00:23:01 00:09:26 LES EVADES 9,619 06:14
72 60 DEVRIES natalie 01:07:22 V1F 6 00:23:01 00:09:26 alkatrail 9,619 06:14
73 17 SPECQUE Julien 01:07:23 SEM 31 00:23:02 00:23:02 Team trail audomarois 9,617 06:14
74 36 DRANSART Pascal 01:07:24 V2M 8 00:23:03 00:19:29 - 9,614 06:14
75 51 BOUCHEZ Anthony 01:07:35 V1M 16 00:23:14 00:15:22 - 9,588 06:15
76 114 DECOFOUR Carole 01:08:07 V1F 7 00:23:46 00:10:11 - 9,513 06:18
77 38 PENNE Erika 01:08:34 V1F 8 00:24:13 00:10:38 Courir dans le Lumbrois 9,451 06:21
78 140 HOLLANDER Vincent 01:08:50 SEM 32 00:24:29 00:24:29 WASC 9,414 06:22
79 122 THESSE Sophie 01:09:01 V1F 9 00:24:40 00:11:05 Stade Longuenessois 9,389 06:23
80 162 MARQUANT Delphine 01:09:01 V1F 10 00:24:40 00:11:05 Stade Longuenessois 9,389 06:23
81 1160 BIASSE Marie Odile 01:09:25 V1F 11 00:25:04 00:11:29 Courir à Colembert 9,335 06:26
82 1159 DUSSART Muriel 01:09:25 V3F 2 00:25:04 00:07:38 Courir à Colembert 9,335 06:26
83 31 BONNIER Franck 01:09:33 V1M 17 00:25:12 00:17:20 DelPSP Team 9,317 06:26
84 142 MAEGHT Capucine 01:09:43 SEF 7 00:25:22 00:14:36 - 9,295 06:27
85 42 FAUCOEUR Emmanuel 01:09:47 V1M 18 00:25:26 00:17:34 Courir dans le Lumbrois 9,286 06:28
86 97 DECUPPER Jean Sebastien 01:09:48 V1M 19 00:25:27 00:17:35 Courir dans le Lumbrois 9,284 06:28
87 167 GUILBERT Charlotte 01:10:01 SEF 8 00:25:40 00:14:54 - 9,255 06:29
88 70 LENGLET Marie 01:10:07 SEF 9 00:25:46 00:15:00 - 9,242 06:30
89 170 CIESLAK Ines 01:10:20 SEF 10 00:25:59 00:15:13 - 9,213 06:31
90 74 FEVRIER Martine 01:10:21 V2F 3 00:26:00 00:04:49 Epeutnaert Moringhem 9,211 06:31
91 96 DELOSIERES Claudia 01:10:30 V1F 12 00:26:09 00:12:34 - 9,191 06:32
92 101 TOP Thierry 01:10:33 V2M 9 00:26:12 00:22:38 - 9,185 06:32
93 5 PETIT Jean-baptiste 01:10:51 V1M 20 00:26:30 00:18:38 - 9,146 06:34
94 195 DUMINIL Thierry 01:11:03 V2M 10 00:26:42 00:23:08 ESA 9,120 06:35
95 151 BONO Franck 01:11:05 V1M 21 00:26:44 00:18:52 Drapeau Le Portel 9,116 06:35
96 176 VALDANT Florence 01:11:08 SEF 11 00:26:47 00:16:01 Gravelines 9,110 06:35
97 180 CAILLIAU Christelle 01:11:09 V2F 4 00:26:48 00:05:37 Team Gravelines Trail 9,108 06:35
98 99 REGNIEZ Mickael 01:11:15 V1M 22 00:26:54 00:19:02 - 9,095 06:36
99 190 WALLET Valerie 01:11:16 V1F 13 00:26:55 00:13:20 Courir dans le Lumbrois 9,093 06:36
100 1 ROELANDT Jean francois 01:11:25 V2M 11 00:27:04 00:23:30 - 9,074 06:37
101 125 RYCKENBUSCH Christophe 01:11:31 V1M 23 00:27:10 00:19:18 - 9,061 06:37
102 3 MINEBOIS Priscillia 01:11:33 SEF 12 00:27:12 00:16:26 Jeunesse cappelloise 9,057 06:37
103 163 PLAQUET Belinda 01:11:47 V1F 14 00:27:26 00:13:51 - 9,027 06:39
104 111 FOURNIER Elise 01:11:57 SEF 13 00:27:36 00:16:50 - 9,006 06:40
105 48 LEMANISSIER David 01:12:02 V2M 12 00:27:41 00:24:07 - 8,996 06:40
106 90 DASSONNEVILLE Romain 01:12:07 SEM 33 00:27:46 00:27:46 Team Trail Audomarois 8,985 06:41
107 62 DESQUIREZ GUILLAUME 01:12:08 SEM 34 00:27:47 00:27:47 Courir dans le Lumbrois 8,983 06:41
108 104 MEENS Grégoire 01:12:08 SEM 35 00:27:47 00:27:47 - 8,983 06:41
109 178 TRONET Ludovic 01:12:47 V1M 24 00:28:26 00:20:34 - 8,903 06:44
110 197 DELOSIERES Christophe 01:12:48 V1M 25 00:28:27 00:20:35 - 8,901 06:44
111 158 GONGORA Séverine 01:12:49 V1F 15 00:28:28 00:14:53 - 8,899 06:45
112 91 FASQUELLE Elisabeth 01:12:55 SEF 14 00:28:34 00:17:48 Les foulées doullennaises 8,887 06:45
113 110 POULY Johannie 01:13:07 SEF 15 00:28:46 00:18:00 - 8,863 06:46
114 109 HENNEQUIN Franck 01:13:08 SEM 36 00:28:47 00:28:47 - 8,861 06:46
115 34 HOUARD Jérôme 01:13:24 V1M 26 00:29:03 00:21:11 - 8,828 06:48
116 32 HOUARD Sylvain 01:13:25 V2M 13 00:29:04 00:25:30 Pass'running 8,826 06:48
117 103 BERNARD Olivier 01:13:26 V1M 27 00:29:05 00:21:13 - 8,824 06:48
118 30 MIEZE Lorinda 01:13:27 SEF 16 00:29:06 00:18:20 DelPSP Team 8,822 06:48
119 156 BIDAUD Jean-Marc 01:13:30 V2M 14 00:29:09 00:25:35 Blaringhem Trail 8,816 06:48
120 83 DOLLE Aurélie 01:13:34 V1F 16 00:29:13 00:15:38 Epeutnaert Moringhem 8,808 06:49
121 150 MODOLO Fanny 01:14:21 V1F 17 00:30:00 00:16:25 Drapeau Le Portel 8,716 06:53
122 121 FLIPO Dominique 01:14:23 V2F 5 00:30:02 00:08:51 Stade Longuenessois 8,712 06:53
123 123 CHAHRI Zohra 01:14:24 V1F 18 00:30:03 00:16:28 Stade Longuenessois 8,710 06:53
124 14 SAINT MACHIN Virginie 01:14:45 V1F 19 00:30:24 00:16:49 - 8,669 06:55
125 168 COHIN ANGELINE 01:14:46 V2F 6 00:30:25 00:09:14 LES COP1 D'ABORD 8,667 06:55
126 105 GUYOT David 01:14:56 V1M 28 00:30:35 00:22:43 R.C. Blendecques 8,648 06:56
127 187 LEROY Catherine 01:15:15 V1F 20 00:30:54 00:17:19 O.S.A. ATHLETISME 8,611 06:58
128 120 PERSYN Stephane 01:15:18 V2M 15 00:30:57 00:27:23 - 8,606 06:58
129 11 BRUGES elise 01:15:45 SEF 17 00:31:24 00:20:38 - 8,554 07:01
130 116 NOWICKI Clara 01:15:46 JUF 1 00:31:25 00:00:00 Courir dans le Lumbrois 8,553 07:01
131 71 LENGLET Pauline 01:16:04 SEF 18 00:31:43 00:20:57 - 8,519 07:03
132 33 DEBIENNE Francois 01:16:30 SEM 37 00:32:09 00:32:09 - 8,471 07:05
133 175 LAMOURY Olivier 01:16:33 V1M 29 00:32:12 00:24:20 - 8,465 07:05
134 126 WATTELET Magalie 01:16:44 SEF 19 00:32:23 00:21:37 - 8,445 07:06
135 193 SOULIEZ Victor 01:17:38 SEM 38 00:33:17 00:33:17 - 8,347 07:11
136 194 CARON Perrine 01:17:41 SEF 20 00:33:20 00:22:34 Epeutnaert Moringhem 8,342 07:12
137 161 PEYRON Laetitia 01:17:41 SEF 21 00:33:20 00:22:34 Stade Longuenessois 8,342 07:12
138 159 LEFRANCOIS Vanessa 01:17:41 SEF 22 00:33:20 00:22:34 - 8,342 07:12
139 64 PISANI Catherine 01:17:47 V1F 21 00:33:26 00:19:51 Courir à gravelines 8,331 07:12
140 69 BARE Béatrice 01:17:47 V2F 7 00:33:26 00:12:15 courir à gravelines 8,331 07:12
141 191 DUQUENOY Hélène 01:18:03 V1F 22 00:33:42 00:20:07 Jogging club licquois 8,302 07:14
142 189 VERBREGUE NATHALIE 01:18:03 V1F 23 00:33:42 00:20:07 JOGGING CLUB LICQUOIS 8,302 07:14
143 59 CARDON Franck 01:18:05 V1M 30 00:33:44 00:25:52 - 8,299 07:14
144 57 COLIN Guillaume 01:18:09 V1M 31 00:33:48 00:25:56 - 8,292 07:14
145 54 HENON Myriam 01:18:26 V1F 24 00:34:05 00:20:30 - 8,262 07:16
146 26 VITSE Gisele 01:18:27 V2F 8 00:34:06 00:12:55 - 8,260 07:16
147 65 LECOUSTRE Sabrina 01:18:34 SEF 23 00:34:13 00:23:27 Courir dans le lumbrois 8,248 07:16
148 21 LEFRANCOIS Céline 01:20:14 SEF 24 00:35:53 00:25:07 - 8,076 07:26
149 20 FROMENT Sandrine 01:20:14 SEF 25 00:35:53 00:25:07 Alkatrail 8,076 07:26
150 63 DESQUIREZ Delphine 01:20:17 SEF 26 00:35:56 00:25:10 Courir dans le Lumbrois 8,071 07:26
151 113 CHIROUTTE Stéphanie 01:21:09 V1F 25 00:36:48 00:23:13 - 7,985 07:31
152 94 HEMBERT Camille 01:21:11 SEF 27 00:36:50 00:26:04 - 7,982 07:31
153 152 BEWERSDORF renata 01:21:19 SEF 28 00:36:58 00:26:12 Team Gravelines Trail 7,969 07:32
154 35 DAUCHELLE Marine 01:21:54 SEF 29 00:37:33 00:26:47 - 7,912 07:35
155 50 TURCEY Vanessa 01:21:55 SEF 30 00:37:34 00:26:48 - 7,910 07:35
156 55 DECLERCK Sylvette 01:21:59 V2F 9 00:37:38 00:16:27 - 7,904 07:35
157 174 FOURNIER Stéphanie 01:22:01 SEF 31 00:37:40 00:26:54 - 7,901 07:36
158 23 MIEZE Laetitia 01:22:10 V1F 26 00:37:49 00:24:14 - 7,886 07:36
159 92 FASQUELLE Damien 01:22:16 V1M 32 00:37:55 00:30:03 Les foulées doullennaises 7,877 07:37
160 89 ANNEBICQUE Mathilde 01:22:36 SEF 32 00:38:15 00:27:29 - 7,845 07:39
161 88 SAUVAGE Virginie 01:22:36 SEF 33 00:38:15 00:27:29 - 7,845 07:39
162 77 DELATTRE Marion 01:23:00 SEF 34 00:38:39 00:27:53 - 7,807 07:41
163 153 BEWERSDORF magdaléna 01:23:39 SEF 35 00:39:18 00:28:32 Team Gravelines Trail 7,747 07:45
164 40 LECLERCQ Stéphanie 01:23:51 V1F 27 00:39:30 00:25:55 Courir dans le Lumbrois 7,728 07:46
165 173 BAHEU Matthieu 01:24:09 SEM 39 00:39:48 00:39:48 - 7,701 07:47
166 135 BOURDON Lise 01:24:10 SEF 36 00:39:49 00:29:03 - 7,699 07:48
167 138 TASSART Sabine 01:24:38 V1F 28 00:40:17 00:26:42 - 7,657 07:50
168 119 HAMY Dany 01:24:52 V2F 10 00:40:31 00:19:20 - 7,636 07:51
169 10 DERNONCOURT Lucie 01:24:54 SEF 37 00:40:33 00:29:47 RUN FOR FUN 7,633 07:52
170 7 DESOMBRE Aurelie 01:24:54 V1F 29 00:40:33 00:26:58 - 7,633 07:52
171 6 CROOKS Isabelle 01:24:57 V1F 30 00:40:36 00:27:01 RUN FOR FUN 7,628 07:52
172 28 DELCROIX Nathalie 01:25:21 V1F 31 00:41:00 00:27:25 DelPSP Team 7,592 07:54
173 27 PAGNERRE Anne 01:25:22 V1F 32 00:41:01 00:27:26 DelPSP Team 7,591 07:54
174 9 DURIEZ Marie 01:25:51 SEF 38 00:41:30 00:30:44 - 7,548 07:57
175 115 DUMONT Nicolas 01:26:05 SEM 40 00:41:44 00:41:44 - 7,528 07:58
176 12 MAGINOT Virginie 01:26:17 SEF 39 00:41:56 00:31:10 Courir dans le Lumbrois 7,510 07:59
177 100 REGNIEZ Astrid 01:27:04 V1F 33 00:42:43 00:29:08 Courir dans le lumbrois 7,443 08:04
178 118 MESSEANT Matthieu 01:27:15 SEM 41 00:42:54 00:42:54 - 7,427 08:05
179 141 MASSET Anne 01:28:01 V1F 34 00:43:40 00:30:05 Courir dans le Lumbrois 7,362 08:09
180 198 GILLET Julien 01:28:09 SEM 42 00:43:48 00:43:48 - 7,351 08:10
181 149 FABRE Dorothée 01:29:48 SEF 40 00:45:27 00:34:41 - 7,216 08:19
182 46 LEFEBVRE Sophie 01:31:09 SEF 41 00:46:48 00:36:02 Courir dans le lumbrois 7,109 08:26
183 39 DECUPPER Nina 01:31:23 V1F 35 00:47:02 00:33:27 Courir dans le Lumbrois 7,091 08:28
184 166 DUBREUIL Florence 01:32:10 SEF 42 00:47:49 00:37:03 - 7,031 08:32
185 132 PRUDHOMME Véronique 01:35:57 V1F 36 00:51:36 00:38:01 Courir dans le Lumbrois 6,754 08:53
186 24 LELEU jean marc 01:45:30 V2M 16 01:01:09 00:57:35 soc calais 6,142 09:46
187 25 BOIS valerie 01:45:31 V1F 37 01:01:10 00:47:35 soc calais 6,141 09:46